createdAt,value
2023-04-02T00:01:33.927Z,99357.25
2023-04-02T00:04:00.810Z,99362.22
2023-04-02T00:06:33.283Z,99356.59
2023-04-02T00:09:21.526Z,99349.50
2023-04-02T00:11:54.968Z,99350.19
2023-04-02T00:14:23.508Z,99359.84
2023-04-02T00:16:52.121Z,99354.34
2023-04-02T00:19:36.208Z,99346.78
2023-04-02T00:22:07.649Z,99346.56
2023-04-02T00:24:34.819Z,99352.28
2023-04-02T00:27:01.811Z,99357.22
2023-04-02T00:29:28.678Z,99365.16
2023-04-02T00:31:59.396Z,99356.78
2023-04-02T00:34:31.906Z,99362.97
2023-04-02T00:36:59.557Z,99358.38
2023-04-02T00:39:34.592Z,99366.28
2023-04-02T00:42:05.831Z,99364.69
2023-04-02T00:44:38.055Z,99361.94
2023-04-02T00:47:17.634Z,99369.97
2023-04-02T00:49:44.709Z,99361.22
2023-04-02T00:52:18.804Z,99358.72
2023-04-02T00:54:51.094Z,99367.44
2023-04-02T00:57:25.842Z,99367.44
2023-04-02T00:59:57.921Z,99362.41
2023-04-02T01:02:28.707Z,99355.84
2023-04-02T01:05:00.128Z,99356.19
2023-04-02T01:07:37.703Z,99362.72
2023-04-02T01:10:26.562Z,99366.28
2023-04-02T01:13:11.747Z,99366.72
2023-04-02T01:15:44.043Z,99367.53
2023-04-02T01:18:18.768Z,99369.13
2023-04-02T01:21:11.168Z,99372.91
2023-04-02T01:23:44.299Z,99366.69
2023-04-02T01:26:19.206Z,99355.66
2023-04-02T01:28:49.423Z,99359.91
2023-04-02T01:31:16.717Z,99363.00
2023-04-02T01:33:43.923Z,99367.78
2023-04-02T01:36:16.533Z,99376.41
2023-04-02T01:39:06.101Z,99367.13
2023-04-02T01:41:43.876Z,99369.72
2023-04-02T01:44:18.086Z,99367.47
2023-04-02T01:46:49.379Z,99375.63
2023-04-02T01:49:21.567Z,99364.72
2023-04-02T01:51:56.784Z,99364.13
2023-04-02T01:54:29.111Z,99361.50
2023-04-02T01:56:57.701Z,99349.38
2023-04-02T01:59:26.545Z,99361.38
2023-04-02T02:02:04.051Z,99351.19
2023-04-02T02:04:34.202Z,99356.34
2023-04-02T02:07:02.556Z,99351.31
2023-04-02T02:09:35.666Z,99364.63
2023-04-02T02:12:04.112Z,99369.53
2023-04-02T02:14:31.931Z,99364.94
2023-04-02T02:17:02.532Z,99373.56
2023-04-02T02:19:56.122Z,99372.38
2023-04-02T02:22:29.188Z,99378.00
2023-04-02T02:24:57.809Z,99369.91
2023-04-02T02:27:25.250Z,99362.09
2023-04-02T02:30:16.630Z,99374.41
2023-04-02T02:32:55.011Z,99376.06
2023-04-02T02:35:23.362Z,99375.97
2023-04-02T02:38:14.416Z,99382.66
2023-04-02T02:40:46.300Z,99391.34
2023-04-02T02:43:16.975Z,99383.25
2023-04-02T02:45:47.442Z,99384.63
2023-04-02T02:48:18.855Z,99393.81
2023-04-02T02:50:46.193Z,99387.59
2023-04-02T02:53:23.552Z,99394.16
2023-04-02T02:55:59.652Z,99384.53
2023-04-02T02:58:34.519Z,99392.41
2023-04-02T03:01:21.949Z,99402.88
2023-04-02T03:03:54.286Z,99397.81
2023-04-02T03:06:22.670Z,99409.19
2023-04-02T03:09:05.276Z,99404.25
2023-04-02T03:12:02.292Z,99409.13
2023-04-02T03:14:38.181Z,99418.97
2023-04-02T03:17:21.134Z,99417.94
2023-04-02T03:19:57.805Z,99427.38
2023-04-02T03:22:38.747Z,99426.91
2023-04-02T03:25:23.545Z,99419.44
2023-04-02T03:27:57.104Z,99424.72
2023-04-02T03:30:42.416Z,99419.22
2023-04-02T03:33:25.473Z,99424.72
2023-04-02T03:36:38.559Z,99417.13
2023-04-02T03:39:18.609Z,99409.13
2023-04-02T03:41:56.587Z,99405.75
2023-04-02T03:44:33.572Z,99402.09
2023-04-02T03:47:16.706Z,99402.09
2023-04-02T03:49:52.386Z,99402.31
2023-04-02T03:52:29.913Z,99414.25
2023-04-02T03:55:02.947Z,99413.44
2023-04-02T03:57:34.909Z,99413.91
2023-04-02T04:00:14.571Z,99416.44
2023-04-02T04:02:46.559Z,99421.72
2023-04-02T04:05:30.040Z,99425.38
2023-04-02T04:08:08.339Z,99434.72
2023-04-02T04:10:36.274Z,99443.53
2023-04-02T04:13:09.464Z,99439.97
2023-04-02T04:15:45.768Z,99446.28
2023-04-02T04:18:47.537Z,99449.16
2023-04-02T04:21:30.310Z,99444.13
2023-04-02T04:24:16.666Z,99451.59
2023-04-02T04:26:57.942Z,99448.81
2023-04-02T04:29:50.374Z,99448.81
2023-04-02T04:32:58.941Z,99449.16
2023-04-02T04:35:32.710Z,99456.06
2023-04-02T04:38:12.338Z,99450.69
2023-04-02T04:40:54.188Z,99453.88
2023-04-02T04:43:50.171Z,99459.06
2023-04-02T04:46:23.416Z,99469.25
2023-04-02T04:49:09.905Z,99470.88
2023-04-02T04:51:52.197Z,99463.78
2023-04-02T04:54:20.556Z,99475.66
2023-04-02T04:57:03.229Z,99477.63
2023-04-02T05:00:13.415Z,99484.81
2023-04-02T05:02:49.008Z,99481.44
2023-04-02T05:05:25.186Z,99491.34
2023-04-02T05:08:27.225Z,99500.19
2023-04-02T05:11:03.626Z,99489.53
2023-04-02T05:13:44.467Z,99492.38
2023-04-02T05:16:16.464Z,99503.59
2023-04-02T05:18:49.293Z,99498.91
2023-04-02T05:21:39.920Z,99505.19
2023-04-02T05:24:32.643Z,99510.28
2023-04-02T05:27:10.160Z,99510.88
2023-04-02T05:29:41.803Z,99505.81
2023-04-02T05:32:21.329Z,99512.13
2023-04-02T05:34:52.932Z,99517.06
2023-04-02T05:37:23.322Z,99509.47
2023-04-02T05:39:55.790Z,99502.25
2023-04-02T05:42:37.903Z,99514.56
2023-04-02T05:45:28.182Z,99509.97
2023-04-02T05:48:02.102Z,99506.78
2023-04-02T05:50:43.414Z,99506.91
2023-04-02T05:53:25.842Z,99509.63
2023-04-02T05:56:02.440Z,99513.34
2023-04-02T05:58:38.692Z,99513.63
2023-04-02T06:01:39.667Z,99524.50
2023-04-02T06:04:27.086Z,99528.53
2023-04-02T06:07:09.602Z,99534.94
2023-04-02T06:09:56.622Z,99537.66
2023-04-02T06:12:47.629Z,99535.22
2023-04-02T06:15:21.774Z,99541.31
2023-04-02T06:17:52.432Z,99537.31
2023-04-02T06:20:21.458Z,99527.00
2023-04-02T06:22:53.112Z,99534.91
2023-04-02T06:25:27.275Z,99529.50
2023-04-02T06:27:58.369Z,99539.38
2023-04-02T06:30:32.189Z,99533.56
2023-04-02T06:33:00.198Z,99544.00
2023-04-02T06:35:28.865Z,99539.16
2023-04-02T06:38:02.803Z,99543.38
2023-04-02T06:40:39.834Z,99544.09
2023-04-02T06:43:37.934Z,99544.16
2023-04-02T06:46:31.165Z,99547.31
2023-04-02T06:49:25.933Z,99535.16
2023-04-02T06:52:00.638Z,99541.69
2023-04-02T06:54:28.877Z,99531.75
2023-04-02T06:57:00.383Z,99538.19
2023-04-02T06:59:40.070Z,99545.91
2023-04-02T07:02:33.764Z,99547.72
2023-04-02T07:05:06.319Z,99549.09
2023-04-02T07:07:35.699Z,99554.88
2023-04-02T07:10:07.167Z,99559.59
2023-04-02T07:12:34.180Z,99561.88
2023-04-02T07:15:00.993Z,99558.38
2023-04-02T07:17:28.095Z,99562.06
2023-04-02T07:19:55.001Z,99560.78
2023-04-02T07:22:23.062Z,99559.81
2023-04-02T07:24:54.264Z,99565.00
2023-04-02T07:40:23.160Z,99587.41
2023-04-02T07:42:50.425Z,99586.28
2023-04-02T07:45:17.368Z,99589.91
2023-04-02T07:47:44.635Z,99592.81
2023-04-02T07:50:11.522Z,99592.03
2023-04-02T07:52:42.725Z,99590.44
2023-04-02T07:55:15.632Z,99595.91
2023-04-02T07:57:52.066Z,99594.25
2023-04-02T08:00:20.722Z,99621.97
2023-04-02T08:02:47.993Z,99603.00
2023-04-02T08:05:16.216Z,99616.56
2023-04-02T08:07:43.207Z,99610.88
2023-04-02T08:10:12.775Z,99615.97
2023-04-02T08:12:39.706Z,99610.91
2023-04-02T08:15:07.549Z,99622.44
2023-04-02T08:17:34.397Z,99610.19
2023-04-02T08:20:01.896Z,99628.59
2023-04-02T08:22:29.556Z,99632.44
2023-04-02T08:24:57.279Z,99635.78
2023-04-02T08:27:25.126Z,99635.13
2023-04-02T08:29:52.514Z,99636.09
2023-04-02T08:32:19.481Z,99639.50
2023-04-02T08:34:46.466Z,99633.44
2023-04-02T08:37:13.910Z,99628.13
2023-04-02T08:39:41.354Z,99627.63
2023-04-02T08:42:30.508Z,99628.47
2023-04-02T08:45:25.450Z,99624.84
2023-04-02T08:47:56.557Z,99629.97
2023-04-02T08:50:36.422Z,99626.44
2023-04-02T08:53:23.124Z,99628.59
2023-04-02T08:55:49.957Z,99643.44
2023-04-02T08:58:44.273Z,99639.06
2023-04-02T09:01:31.708Z,99649.34
2023-04-02T09:03:59.739Z,99650.84
2023-04-02T09:06:29.295Z,99658.97
2023-04-02T09:08:58.224Z,99655.28
2023-04-02T09:11:34.157Z,99655.44
2023-04-02T09:14:06.586Z,99650.00
2023-04-02T09:16:43.565Z,99651.13
2023-04-02T09:19:20.046Z,99652.00
2023-04-02T09:22:16.603Z,99650.19
2023-04-02T09:24:43.686Z,99659.00
2023-04-02T09:27:23.077Z,99661.41
2023-04-02T09:29:55.697Z,99663.34
2023-04-02T09:32:50.599Z,99657.16
2023-04-02T09:35:26.015Z,99659.69
2023-04-02T09:38:11.774Z,99666.91
2023-04-02T09:40:54.155Z,99665.28
2023-04-02T09:43:25.602Z,99652.19
2023-04-02T09:46:15.550Z,99661.41
2023-04-02T09:49:01.483Z,99666.47
2023-04-02T09:51:33.381Z,99665.47
2023-04-02T09:54:03.205Z,99667.53
2023-04-02T09:56:32.844Z,99662.94
2023-04-02T09:59:19.420Z,99666.91
2023-04-02T10:02:23.569Z,99672.13
2023-04-02T10:04:51.014Z,99666.00
2023-04-02T10:07:36.759Z,99668.28
2023-04-02T10:10:28.188Z,99666.50
2023-04-02T10:13:04.321Z,99676.97
2023-04-02T10:15:53.898Z,99680.00
2023-04-02T10:18:35.870Z,99662.63
2023-04-02T10:21:04.715Z,99678.16
2023-04-02T10:23:32.734Z,99675.00
2023-04-02T10:26:15.822Z,99683.09
2023-04-02T10:28:54.772Z,99696.28
2023-04-02T10:31:26.514Z,99687.78
2023-04-02T10:34:10.062Z,99691.13
2023-04-02T10:36:58.104Z,99708.94
2023-04-02T10:39:41.597Z,99698.97
2023-04-02T10:42:27.608Z,99709.06
2023-04-02T10:45:19.943Z,99722.53
2023-04-02T10:48:02.109Z,99716.22
2023-04-02T10:50:55.535Z,99723.81
2023-04-02T10:53:33.603Z,99728.63
2023-04-02T10:56:05.769Z,99720.91
2023-04-02T10:58:39.534Z,99722.53
2023-04-02T11:01:13.670Z,99723.78
2023-04-02T11:03:58.186Z,99711.75
2023-04-02T11:06:58.053Z,99714.66
2023-04-02T11:09:37.402Z,99713.84
2023-04-02T11:12:06.502Z,99711.81
2023-04-02T11:14:33.842Z,99708.06
2023-04-02T11:17:04.472Z,99708.66
2023-04-02T11:19:36.111Z,99719.34
2023-04-02T11:22:22.364Z,99706.41
2023-04-02T11:24:54.854Z,99715.59
2023-04-02T11:27:24.945Z,99723.81
2023-04-02T11:30:22.920Z,99721.91
2023-04-02T11:32:50.420Z,99729.88
2023-04-02T11:35:32.622Z,99732.22
2023-04-02T11:38:04.400Z,99725.00
2023-04-02T11:40:54.919Z,99714.94
2023-04-02T11:43:34.313Z,99718.63
2023-04-02T11:46:20.693Z,99726.16
2023-04-02T11:48:47.846Z,99730.19
2023-04-02T11:51:21.384Z,99726.31
2023-04-02T11:53:50.275Z,99725.50
2023-04-02T11:56:37.629Z,99727.38
2023-04-02T11:59:10.603Z,99725.41
2023-04-02T12:01:59.459Z,99722.66
2023-04-02T12:04:53.353Z,99715.47
2023-04-02T12:08:05.271Z,99727.09
2023-04-02T12:10:53.374Z,99729.09
2023-04-02T12:13:40.695Z,99730.28
2023-04-02T12:16:14.482Z,99730.69
2023-04-02T12:18:53.983Z,99732.22
2023-04-02T12:21:25.957Z,99738.69
2023-04-02T12:23:56.969Z,99719.47
2023-04-02T12:26:39.021Z,99723.41
2023-04-02T12:29:15.165Z,99727.78
2023-04-02T12:31:48.173Z,99728.53
2023-04-02T12:34:18.539Z,99734.81
2023-04-02T12:37:20.667Z,99743.78
2023-04-02T12:40:17.735Z,99739.00
2023-04-02T12:42:44.665Z,99737.31
2023-04-02T12:45:31.201Z,99737.94
2023-04-02T12:48:03.227Z,99746.53
2023-04-02T12:50:30.250Z,99744.16
2023-04-02T12:52:59.099Z,99744.50
2023-04-02T12:55:27.610Z,99738.75
2023-04-02T12:57:59.147Z,99747.91
2023-04-02T13:00:26.008Z,99741.56
2023-04-02T13:03:05.964Z,99749.22
2023-04-02T13:05:34.767Z,99747.13
2023-04-02T13:08:02.022Z,99743.81
2023-04-02T13:10:29.015Z,99753.88
2023-04-02T13:13:01.244Z,99747.75
2023-04-02T13:15:31.625Z,99747.47
2023-04-02T13:18:05.041Z,99741.75
2023-04-02T13:20:41.369Z,99734.28
2023-04-02T13:23:30.014Z,99734.19
2023-04-02T13:26:17.455Z,99729.41
2023-04-02T13:29:01.755Z,99736.16
2023-04-02T13:31:31.041Z,99733.78
2023-04-02T13:33:58.843Z,99724.13
2023-04-02T13:36:26.501Z,99728.13
2023-04-02T13:38:53.408Z,99724.47
2023-04-02T13:41:25.194Z,99730.84
2023-04-02T13:43:54.368Z,99728.69
2023-04-02T13:46:24.858Z,99723.78
2023-04-02T13:48:53.511Z,99726.50
2023-04-02T13:51:25.483Z,99734.47
2023-04-02T13:53:57.270Z,99732.53
2023-04-02T13:56:25.056Z,99733.78
2023-04-02T13:58:52.485Z,99730.53
2023-04-02T14:01:21.974Z,99741.69
2023-04-02T14:03:49.042Z,99737.72
2023-04-02T14:06:29.192Z,99736.97
2023-04-02T14:09:09.808Z,99735.44
2023-04-02T14:11:36.701Z,99734.00
2023-04-02T14:14:25.132Z,99731.53
2023-04-02T14:16:57.852Z,99725.06
2023-04-02T14:20:01.904Z,99727.53
2023-04-02T14:22:44.095Z,99724.31
2023-04-02T14:25:38.665Z,99738.59
2023-04-02T14:28:20.597Z,99735.81
2023-04-02T14:31:38.124Z,99741.44
2023-04-02T14:34:16.632Z,99741.50
2023-04-02T14:36:56.557Z,99737.47
2023-04-02T14:39:31.758Z,99742.63
2023-04-02T14:42:04.637Z,99738.59
2023-04-02T14:44:42.497Z,99735.41
2023-04-02T14:47:25.103Z,99730.91
2023-04-02T14:49:59.087Z,99735.69
2023-04-02T14:52:28.721Z,99737.44
2023-04-02T14:55:12.085Z,99739.41
2023-04-02T14:57:49.046Z,99742.50
2023-04-02T15:00:40.549Z,99740.59
2023-04-02T15:03:25.084Z,99745.03
2023-04-02T15:05:59.141Z,99736.97
2023-04-02T15:08:37.194Z,99736.00
2023-04-02T15:11:13.349Z,99734.75
2023-04-02T15:13:49.802Z,99734.78
2023-04-02T15:16:19.694Z,99742.06
2023-04-02T15:18:51.272Z,99735.59
2023-04-02T15:21:25.618Z,99739.13
2023-04-02T15:24:11.570Z,99752.69
2023-04-02T15:27:00.440Z,99760.69
2023-04-02T15:30:15.067Z,99760.00
2023-04-02T15:32:43.722Z,99774.66
2023-04-02T15:35:16.749Z,99760.97
2023-04-02T15:37:58.143Z,99779.34
2023-04-02T15:40:43.219Z,99780.41
2023-04-02T15:43:16.343Z,99788.59
2023-04-02T15:46:26.172Z,99789.88
2023-04-02T15:49:29.778Z,99786.03
2023-04-02T15:52:30.505Z,99790.06
2023-04-02T15:55:28.661Z,99784.53
2023-04-02T15:58:04.575Z,99790.75
2023-04-02T16:00:36.130Z,99780.94
2023-04-02T16:03:24.634Z,99789.06
2023-04-02T16:06:06.783Z,99789.00
2023-04-02T16:08:41.529Z,99804.19
2023-04-02T16:11:15.033Z,99800.78
2023-04-02T16:13:43.273Z,99804.38
2023-04-02T16:16:30.885Z,99799.59
2023-04-02T16:19:21.048Z,99797.78
2023-04-02T16:21:54.625Z,99798.19
2023-04-02T16:24:22.712Z,99809.59
2023-04-02T16:27:20.678Z,99804.50
2023-04-02T16:30:05.905Z,99802.38
2023-04-02T16:32:52.791Z,99810.22
2023-04-02T16:35:44.544Z,99806.09
2023-04-02T16:38:34.821Z,99823.66
2023-04-02T16:41:39.014Z,99824.81
2023-04-02T16:44:20.326Z,99830.31
2023-04-02T16:47:05.667Z,99824.50
2023-04-02T16:49:54.122Z,99834.38
2023-04-02T16:52:38.248Z,99834.75
2023-04-02T16:55:10.137Z,99846.66
2023-04-02T16:57:44.799Z,99844.03
2023-04-02T17:00:23.840Z,99850.16
2023-04-02T17:03:06.188Z,99848.78
2023-04-02T17:05:47.291Z,99854.53
2023-04-02T17:08:17.201Z,99856.47
2023-04-02T17:11:01.671Z,99859.34
2023-04-02T17:13:48.870Z,99873.16
2023-04-02T17:16:23.009Z,99873.97
2023-04-02T17:18:53.257Z,99874.06
2023-04-02T17:21:24.767Z,99880.31
2023-04-02T17:23:56.713Z,99884.31
2023-04-02T17:26:28.125Z,99887.19
2023-04-02T17:28:58.700Z,99891.44
2023-04-02T17:31:30.969Z,99889.03
2023-04-02T17:33:57.954Z,99897.19
2023-04-02T17:36:42.451Z,99899.34
2023-04-02T17:39:40.649Z,99910.16
2023-04-02T17:42:20.469Z,99911.00
2023-04-02T17:45:01.569Z,99908.84
2023-04-02T17:47:46.646Z,99917.22
2023-04-02T17:50:34.653Z,99928.63
2023-04-02T17:53:10.009Z,99931.16
2023-04-02T17:56:01.483Z,99924.94
2023-04-02T17:58:49.801Z,99938.16
2023-04-02T18:01:55.944Z,99937.81
2023-04-02T18:04:49.014Z,99942.97
2023-04-02T18:07:24.715Z,99949.28
2023-04-02T18:10:04.086Z,99944.81
2023-04-02T18:12:31.494Z,99938.94
2023-04-02T18:15:04.182Z,99945.56
2023-04-02T18:17:39.945Z,99958.91
2023-04-02T18:20:35.438Z,99946.56
2023-04-02T18:23:21.674Z,99951.31
2023-04-02T18:26:27.952Z,99949.41
2023-04-02T18:29:03.906Z,99946.44
2023-04-02T18:32:18.538Z,99951.94
2023-04-02T18:35:00.637Z,99955.91
2023-04-02T18:37:43.265Z,99960.34
2023-04-02T18:40:49.832Z,99961.41
2023-04-02T18:43:38.213Z,99975.03
2023-04-02T18:46:32.418Z,99968.25
2023-04-02T18:49:19.357Z,99962.44
2023-04-02T18:51:50.286Z,99969.72
2023-04-02T18:54:30.121Z,99973.78
2023-04-02T18:56:57.123Z,99968.56
2023-04-02T19:00:04.560Z,99969.50
2023-04-02T19:02:48.870Z,99969.34
2023-04-02T19:05:37.960Z,99968.56
2023-04-02T19:08:31.490Z,99979.78
2023-04-02T19:11:02.220Z,99986.78
2023-04-02T19:13:29.397Z,99975.97
2023-04-02T19:16:17.586Z,99980.25
2023-04-02T19:18:55.898Z,99979.31
2023-04-02T19:22:20.022Z,99977.47
2023-04-02T19:25:08.845Z,99981.28
2023-04-02T19:28:08.773Z,99973.94
2023-04-02T19:42:35.998Z,99976.38
2023-04-02T19:45:03.319Z,99977.88
2023-04-02T19:47:30.302Z,99974.22
2023-04-02T19:49:57.223Z,99976.78
2023-04-02T19:52:24.091Z,99971.03
2023-04-02T19:54:50.870Z,99971.84
2023-04-02T19:57:18.106Z,99964.59
2023-04-02T19:59:45.012Z,99964.06
2023-04-02T20:02:11.976Z,99966.56
2023-04-02T20:04:38.859Z,99958.75
2023-04-02T20:07:05.860Z,99964.59
2023-04-02T20:09:32.672Z,99958.97
2023-04-02T20:11:59.665Z,99958.44
2023-04-02T20:14:26.544Z,99965.91
2023-04-02T20:16:53.658Z,99961.97
2023-04-02T20:19:20.776Z,99966.75
2023-04-02T20:21:47.882Z,99961.91
2023-04-02T20:24:14.885Z,99960.19
2023-04-02T20:26:41.926Z,99965.56
2023-04-02T20:29:08.979Z,99983.97
2023-04-02T20:31:36.257Z,99978.94
2023-04-02T20:34:05.686Z,99983.44
2023-04-02T20:36:33.004Z,99975.47
2023-04-02T20:39:00.190Z,99982.38
2023-04-02T20:41:27.621Z,99977.69
2023-04-02T20:43:54.856Z,99979.44
2023-04-02T20:46:22.511Z,99977.00
2023-04-02T20:48:49.754Z,99982.53
2023-04-02T20:51:16.940Z,99975.03
2023-04-02T20:53:44.500Z,99984.88
2023-04-02T20:56:14.464Z,99966.72
2023-04-02T20:58:42.130Z,99972.53
2023-04-02T21:01:09.533Z,99963.84
2023-04-02T21:03:37.122Z,99957.09
2023-04-02T21:06:04.315Z,99967.50
2023-04-02T21:08:31.771Z,99976.47
2023-04-02T21:11:04.044Z,99983.13
2023-04-02T21:13:32.624Z,99973.06
2023-04-02T21:16:00.291Z,99986.66
2023-04-02T21:18:27.285Z,99976.97
2023-04-02T21:21:02.569Z,99978.72
2023-04-02T21:23:30.062Z,99982.38
2023-04-02T21:26:01.735Z,99992.81
2023-04-02T21:28:28.907Z,99992.81
2023-04-02T21:31:11.719Z,99991.06
2023-04-02T21:33:41.760Z,99984.72
2023-04-02T21:36:12.104Z,99976.13
2023-04-02T21:38:44.344Z,99975.38
2023-04-02T21:41:16.956Z,99979.63
2023-04-02T21:43:46.219Z,99974.81
2023-04-02T21:46:13.384Z,99979.47
2023-04-02T21:48:42.154Z,99978.19
2023-04-02T21:51:15.872Z,99971.47
2023-04-02T21:53:43.630Z,99969.63
2023-04-02T21:56:22.908Z,99965.13
2023-04-02T21:58:51.547Z,99973.59
2023-04-02T22:01:27.097Z,99971.72
2023-04-02T22:03:56.537Z,99970.56
2023-04-02T22:06:26.029Z,99973.66
2023-04-02T22:08:58.940Z,99971.38
2023-04-02T22:11:36.498Z,99969.56
2023-04-02T22:14:04.214Z,99966.72
2023-04-02T22:16:33.615Z,99971.75
2023-04-02T22:19:02.967Z,99964.06
2023-04-02T22:21:31.183Z,99960.50
2023-04-02T22:24:03.192Z,99972.28
2023-04-02T22:26:31.941Z,99964.06
2023-04-02T22:29:00.493Z,99972.56
2023-04-02T22:31:29.904Z,99973.34
2023-04-02T22:33:57.649Z,99967.03
2023-04-02T22:36:26.029Z,99968.97
2023-04-02T22:38:53.674Z,99960.56
2023-04-02T22:41:25.759Z,99964.59
2023-04-02T22:43:53.088Z,99956.88
2023-04-02T22:46:20.928Z,99952.63
2023-04-02T22:48:49.844Z,99960.28
2023-04-02T22:51:19.218Z,99962.84
2023-04-02T22:53:46.843Z,99963.78
2023-04-02T22:56:19.291Z,99964.31
2023-04-02T22:58:46.651Z,99963.03
2023-04-02T23:01:17.895Z,99963.38
2023-04-02T23:03:45.111Z,99953.59
2023-04-02T23:06:15.167Z,99954.44
2023-04-02T23:08:42.539Z,99948.47
2023-04-02T23:11:22.151Z,99959.38
2023-04-02T23:13:51.682Z,99951.75
2023-04-02T23:16:19.915Z,99947.19
2023-04-02T23:18:48.372Z,99945.34
2023-04-02T23:21:16.567Z,99940.50
2023-04-02T23:23:44.528Z,99940.97
2023-04-02T23:26:16.195Z,99947.16
2023-04-02T23:28:43.918Z,99945.69
2023-04-02T23:31:19.991Z,99950.94
2023-04-02T23:33:47.182Z,99944.34
2023-04-02T23:36:22.353Z,99950.06
2023-04-02T23:38:52.162Z,99948.28
2023-04-02T23:41:19.107Z,99950.22
2023-04-02T23:43:46.158Z,99949.91
2023-04-02T23:46:13.146Z,99952.19
2023-04-02T23:48:40.451Z,99946.38
2023-04-02T23:51:07.407Z,99953.47
2023-04-02T23:53:34.984Z,99942.81
2023-04-02T23:56:02.008Z,99948.63
2023-04-02T23:58:29.723Z,99929.34
